createdAt,value
2023-04-13T00:00:27.886Z,14.67
2023-04-13T00:02:57.128Z,13.30
2023-04-13T00:05:25.071Z,13.90
2023-04-13T00:07:53.161Z,15.40
2023-04-13T00:10:22.153Z,14.67
2023-04-13T00:12:50.139Z,14.10
2023-04-13T00:15:19.212Z,14.37
2023-04-13T00:17:48.355Z,13.23
2023-04-13T00:20:18.154Z,14.40
2023-04-13T00:22:46.770Z,14.93
2023-04-13T00:25:15.288Z,13.90
2023-04-13T00:27:44.164Z,14.90
2023-04-13T00:30:12.615Z,15.23
2023-04-13T00:32:42.203Z,14.93
2023-04-13T00:35:10.815Z,14.30
2023-04-13T00:37:43.078Z,15.83
2023-04-13T00:40:11.835Z,15.60
2023-04-13T00:42:39.554Z,15.60
2023-04-13T00:45:09.509Z,15.63
2023-04-13T00:47:37.593Z,15.80
2023-04-13T00:50:07.273Z,15.70
2023-04-13T00:52:38.161Z,16.50
2023-04-13T00:55:08.759Z,16.30
2023-04-13T00:57:40.495Z,16.03
2023-04-13T01:00:09.299Z,16.37
2023-04-13T01:02:41.785Z,17.10
2023-04-13T01:05:15.757Z,16.47
2023-04-13T01:07:52.915Z,17.30
2023-04-13T01:10:25.761Z,17.67
2023-04-13T01:12:59.265Z,19.00
2023-04-13T01:15:29.513Z,18.13
2023-04-13T01:17:58.220Z,19.00
2023-04-13T01:20:27.370Z,18.23
2023-04-13T01:22:56.380Z,18.20
2023-04-13T01:25:32.095Z,17.43
2023-04-13T01:28:03.536Z,17.10
2023-04-13T01:30:33.809Z,17.70
2023-04-13T01:33:02.689Z,17.80
2023-04-13T01:35:32.153Z,17.07
2023-04-13T01:38:01.498Z,17.97
2023-04-13T01:40:32.949Z,17.60
2023-04-13T01:43:02.899Z,18.13
2023-04-13T01:45:43.839Z,17.40
2023-04-13T01:48:14.330Z,17.87
2023-04-13T01:50:57.295Z,17.27
2023-04-13T01:53:38.476Z,17.47
2023-04-13T01:56:07.801Z,16.87
2023-04-13T01:58:37.759Z,16.50
2023-04-13T02:01:12.892Z,17.10
2023-04-13T02:03:43.204Z,17.60
2023-04-13T02:06:12.375Z,17.53
2023-04-13T02:08:42.722Z,16.20
2023-04-13T02:11:12.767Z,17.00
2023-04-13T02:13:41.876Z,17.63
2023-04-13T02:19:05.613Z,16.83
2023-04-13T02:21:35.370Z,16.80
2023-04-13T02:24:05.878Z,17.90
2023-04-13T02:26:34.602Z,18.50
2023-04-13T02:29:03.874Z,16.60
2023-04-13T02:31:33.670Z,15.60
2023-04-13T02:34:01.807Z,16.47
2023-04-13T02:36:31.083Z,15.63
2023-04-13T02:39:03.981Z,15.63
2023-04-13T02:41:34.343Z,15.50
2023-04-13T02:44:04.895Z,15.00
2023-04-13T02:46:45.854Z,15.77
2023-04-13T02:49:17.344Z,15.63
2023-04-13T02:51:56.025Z,15.30
2023-04-13T02:54:36.578Z,14.37
2023-04-13T02:57:05.088Z,15.30
2023-04-13T02:59:38.417Z,16.13
2023-04-13T03:02:09.915Z,15.20
2023-04-13T03:04:38.472Z,14.60
2023-04-13T03:07:09.904Z,16.30
2023-04-13T03:09:44.674Z,13.57
2023-04-13T03:12:12.885Z,15.23
2023-04-13T03:14:44.759Z,14.57
2023-04-13T03:17:13.033Z,13.70
2023-04-13T03:19:42.628Z,13.07
2023-04-13T03:22:13.349Z,12.90
2023-04-13T03:24:46.398Z,12.80
2023-04-13T03:27:21.480Z,13.03
2023-04-13T03:29:52.181Z,13.60
2023-04-13T03:32:23.553Z,12.70
2023-04-13T03:34:58.659Z,11.30
2023-04-13T03:37:30.072Z,11.50
2023-04-13T03:40:03.030Z,12.43
2023-04-13T03:42:37.053Z,10.67
2023-04-13T03:45:07.212Z,10.67
2023-04-13T03:47:35.365Z,10.30
2023-04-13T03:50:03.802Z,10.83
2023-04-13T03:52:35.594Z,10.60
2023-04-13T03:55:04.950Z,9.83
2023-04-13T03:57:35.841Z,10.73
2023-04-13T04:00:13.972Z,10.63
2023-04-13T04:02:46.336Z,9.60
2023-04-13T04:05:20.299Z,9.47
2023-04-13T04:07:53.979Z,10.40
2023-04-13T04:10:22.758Z,9.50
2023-04-13T04:12:51.401Z,9.83
2023-04-13T04:15:21.099Z,9.63
2023-04-13T04:17:54.661Z,10.50
2023-04-13T04:20:22.927Z,10.17
2023-04-13T04:22:52.231Z,11.13
2023-04-13T04:25:22.984Z,9.73
2023-04-13T04:27:57.666Z,10.40
2023-04-13T04:30:29.868Z,11.00
2023-04-13T04:32:58.958Z,10.23
2023-04-13T04:35:34.179Z,11.07
2023-04-13T04:38:04.302Z,10.27
2023-04-13T04:40:35.992Z,10.93
2023-04-13T04:43:06.211Z,11.17
2023-04-13T04:45:44.280Z,12.20
2023-04-13T04:48:14.829Z,13.17
2023-04-13T04:50:46.230Z,13.83
2023-04-13T04:53:16.921Z,13.87
2023-04-13T04:55:46.951Z,14.60
2023-04-13T04:58:26.454Z,13.73
2023-04-13T05:00:58.801Z,14.10
2023-04-13T05:03:26.701Z,13.00
2023-04-13T05:06:04.952Z,13.80
2023-04-13T05:08:34.517Z,12.63
2023-04-13T05:11:02.616Z,12.80
2023-04-13T05:13:31.344Z,13.47
2023-04-13T05:16:17.704Z,13.30
2023-04-13T05:18:47.349Z,12.73
2023-04-13T05:21:38.022Z,13.43
2023-04-13T05:24:06.975Z,14.20
2023-04-13T05:26:35.236Z,13.00
2023-04-13T05:29:04.628Z,12.20
2023-04-13T05:31:38.174Z,13.00
2023-04-13T05:34:07.254Z,13.90
2023-04-13T05:36:36.231Z,13.70
2023-04-13T05:39:10.799Z,13.20
2023-04-13T05:41:39.115Z,12.57
2023-04-13T05:44:07.939Z,12.83
2023-04-13T05:46:38.407Z,13.07
2023-04-13T05:49:07.379Z,13.20
2023-04-13T05:51:35.404Z,11.90
2023-04-13T05:54:03.451Z,11.70
2023-04-13T05:56:34.309Z,11.77
2023-04-13T05:59:03.466Z,11.90
2023-04-13T06:01:31.558Z,12.60
2023-04-13T06:04:03.570Z,12.00
2023-04-13T06:06:33.010Z,12.20
2023-04-13T06:09:01.244Z,13.00
2023-04-13T06:11:29.551Z,11.50
2023-04-13T06:14:02.728Z,11.80
2023-04-13T06:16:30.872Z,11.23
2023-04-13T06:19:00.524Z,11.30
2023-04-13T06:21:30.353Z,14.43
2023-04-13T06:23:58.061Z,11.20
2023-04-13T06:26:30.396Z,11.90
2023-04-13T06:28:58.519Z,11.80
2023-04-13T06:31:27.635Z,11.30
2023-04-13T06:33:58.772Z,12.20
2023-04-13T06:36:32.861Z,11.60
2023-04-13T06:39:02.547Z,11.33
2023-04-13T06:41:32.481Z,10.77
2023-04-13T06:44:15.501Z,10.93
2023-04-13T06:46:52.160Z,10.93
2023-04-13T06:49:22.208Z,15.83
2023-04-13T06:51:52.725Z,10.10
2023-04-13T06:54:22.448Z,9.60
2023-04-13T06:56:57.719Z,8.37
2023-04-13T06:59:25.935Z,9.03
2023-04-13T07:01:53.913Z,8.10
2023-04-13T07:04:22.002Z,7.20
2023-04-13T07:06:50.043Z,7.97
2023-04-13T07:09:19.603Z,6.90
2023-04-13T07:11:47.563Z,7.60
2023-04-13T07:14:16.899Z,6.50
2023-04-13T07:16:44.794Z,6.27
2023-04-13T07:19:14.768Z,5.10
2023-04-13T07:21:43.582Z,7.70
2023-04-13T07:24:11.374Z,5.77
2023-04-13T07:26:44.417Z,8.33
2023-04-13T07:29:13.562Z,5.47
2023-04-13T07:31:47.891Z,5.60
2023-04-13T07:34:15.782Z,5.73
2023-04-13T07:36:46.626Z,5.50
2023-04-13T07:39:18.696Z,5.93
2023-04-13T07:41:50.636Z,4.90
2023-04-13T07:44:36.261Z,5.20
2023-04-13T07:47:04.441Z,4.73
2023-04-13T07:49:33.504Z,4.23
2023-04-13T07:52:02.263Z,5.00
2023-04-13T07:54:34.958Z,4.60
2023-04-13T07:57:08.384Z,4.10
2023-04-13T07:59:40.418Z,4.30
2023-04-13T08:02:09.035Z,4.23
2023-04-13T08:04:39.614Z,4.07
2023-04-13T08:07:08.484Z,3.90
2023-04-13T08:09:37.505Z,4.33
2023-04-13T08:12:05.706Z,4.30
2023-04-13T08:14:36.720Z,4.07
2023-04-13T08:17:06.074Z,3.60
2023-04-13T08:19:35.332Z,3.60
2023-04-13T08:22:05.903Z,3.73
2023-04-13T08:24:33.633Z,2.80
2023-04-13T08:27:01.373Z,3.40
2023-04-13T08:29:29.320Z,2.93
2023-04-13T08:31:59.153Z,2.93
2023-04-13T08:34:29.509Z,3.17
2023-04-13T08:36:57.337Z,2.53
2023-04-13T08:39:27.262Z,2.70
2023-04-13T08:41:56.759Z,2.20
2023-04-13T08:44:28.394Z,2.50
2023-04-13T08:46:56.568Z,2.97
2023-04-13T08:49:30.998Z,2.33
2023-04-13T08:52:08.916Z,2.10
2023-04-13T08:54:37.610Z,2.67
2023-04-13T08:57:10.540Z,2.00
2023-04-13T08:59:41.440Z,1.90
2023-04-13T09:02:09.635Z,1.50
2023-04-13T09:04:50.895Z,1.60
2023-04-13T09:07:26.468Z,2.17
2023-04-13T09:09:59.123Z,2.17
2023-04-13T09:12:26.865Z,2.00
2023-04-13T09:14:54.944Z,1.47
2023-04-13T09:17:27.018Z,1.80
2023-04-13T09:19:58.183Z,2.00
2023-04-13T09:22:26.389Z,1.87
2023-04-13T09:24:54.154Z,1.80
2023-04-13T09:27:23.395Z,2.20
2023-04-13T09:29:52.683Z,1.97
2023-04-13T09:32:20.769Z,2.00
2023-04-13T09:35:01.397Z,1.50
2023-04-13T09:37:29.294Z,1.40
2023-04-13T09:39:57.021Z,1.40
2023-04-13T09:42:24.917Z,1.23
2023-04-13T09:44:59.283Z,1.57
2023-04-13T09:47:35.719Z,1.20
2023-04-13T09:50:05.632Z,1.90
2023-04-13T09:52:34.065Z,1.40
2023-04-13T09:55:01.745Z,1.60
2023-04-13T09:57:30.306Z,3.07
2023-04-13T10:00:00.854Z,1.30
2023-04-13T10:02:40.639Z,1.20
2023-04-13T10:05:12.380Z,1.63
2023-04-13T10:07:41.517Z,1.50
2023-04-13T10:10:09.745Z,1.50
2023-04-13T10:12:38.804Z,1.50
2023-04-13T10:15:11.802Z,1.40
2023-04-13T10:17:45.535Z,1.37
2023-04-13T10:20:16.020Z,1.40
2023-04-13T10:22:45.243Z,1.30
2023-04-13T10:25:25.666Z,1.60
2023-04-13T10:28:01.417Z,1.70
2023-04-13T10:30:29.235Z,1.60
2023-04-13T10:33:07.126Z,1.83
2023-04-13T10:35:39.395Z,1.60
2023-04-13T10:38:12.336Z,1.80
2023-04-13T10:40:43.662Z,1.33
2023-04-13T10:43:11.525Z,1.10
2023-04-13T10:45:40.617Z,1.47
2023-04-13T10:48:08.751Z,1.73
2023-04-13T10:50:39.617Z,1.40
2023-04-13T10:53:09.117Z,1.70
2023-04-13T10:55:37.213Z,1.33
2023-04-13T10:58:15.366Z,1.60
2023-04-13T11:00:46.695Z,1.83
2023-04-13T11:03:16.747Z,1.63
2023-04-13T11:05:47.261Z,1.90
2023-04-13T11:08:20.695Z,2.00
2023-04-13T11:10:53.085Z,1.90
2023-04-13T11:13:21.870Z,1.40
2023-04-13T11:15:51.734Z,1.93
2023-04-13T11:18:25.772Z,1.60
2023-04-13T11:20:55.279Z,1.90
2023-04-13T11:23:24.205Z,1.90
2023-04-13T11:25:55.130Z,1.83
2023-04-13T11:28:23.884Z,1.90
2023-04-13T11:30:56.562Z,1.63
2023-04-13T11:33:25.599Z,2.10
2023-04-13T11:35:55.075Z,1.60
2023-04-13T11:38:24.382Z,1.57
2023-04-13T11:40:58.915Z,1.53
2023-04-13T11:43:36.053Z,1.17
2023-04-13T11:46:04.648Z,1.70
2023-04-13T11:48:32.596Z,2.00
2023-04-13T11:51:01.756Z,1.73
2023-04-13T11:53:30.244Z,1.90
2023-04-13T11:55:58.322Z,2.20
2023-04-13T11:58:26.121Z,2.10
2023-04-13T12:00:58.207Z,2.70
2023-04-13T12:03:47.136Z,2.47
2023-04-13T12:06:26.037Z,1.80
2023-04-13T12:09:09.046Z,2.07
2023-04-13T12:11:42.218Z,1.60
2023-04-13T12:14:40.954Z,1.60
2023-04-13T12:17:30.362Z,2.00
2023-04-13T12:20:00.555Z,2.67
2023-04-13T12:22:50.802Z,1.43
2023-04-13T12:25:24.384Z,2.50
2023-04-13T12:27:53.707Z,1.80
2023-04-13T12:30:22.293Z,1.50
2023-04-13T12:32:53.013Z,1.53
2023-04-13T12:35:21.487Z,1.50
2023-04-13T12:37:52.596Z,1.90
2023-04-13T12:40:20.569Z,1.80
2023-04-13T12:42:49.595Z,2.30
2023-04-13T12:45:17.604Z,1.63
2023-04-13T12:47:45.430Z,1.30
2023-04-13T12:50:13.771Z,1.77
2023-04-13T12:52:42.767Z,1.67
2023-04-13T12:55:12.484Z,1.83
2023-04-13T12:57:40.894Z,1.87
2023-04-13T13:00:11.027Z,1.50
2023-04-13T13:02:39.278Z,2.10
2023-04-13T13:05:09.253Z,1.77
2023-04-13T13:07:37.299Z,1.70
2023-04-13T13:10:15.222Z,2.20
2023-04-13T13:12:51.929Z,2.67
2023-04-13T13:15:20.112Z,1.87
2023-04-13T13:17:48.229Z,2.77
2023-04-13T13:20:18.034Z,4.53
2023-04-13T13:22:45.778Z,2.30
2023-04-13T13:25:15.119Z,2.97
2023-04-13T13:28:10.128Z,2.13
2023-04-13T13:30:32.025Z,1.77
2023-04-13T13:32:59.789Z,1.70
2023-04-13T13:35:27.510Z,2.83
2023-04-13T13:37:55.502Z,2.40
2023-04-13T13:40:23.226Z,1.83
2023-04-13T13:42:52.377Z,1.77
2023-04-13T13:45:21.726Z,1.97
2023-04-13T13:47:54.998Z,1.63
2023-04-13T13:50:37.397Z,1.90
2023-04-13T13:53:06.201Z,1.70
2023-04-13T13:55:39.529Z,1.57
2023-04-13T13:58:07.818Z,2.10
2023-04-13T14:00:35.571Z,1.30
2023-04-13T14:03:04.840Z,1.60
2023-04-13T14:05:33.679Z,1.60
2023-04-13T14:08:01.474Z,1.20
2023-04-13T14:10:29.251Z,1.67
2023-04-13T14:12:57.168Z,2.97
2023-04-13T14:15:24.926Z,1.97
2023-04-13T14:18:06.513Z,1.80
2023-04-13T14:20:40.304Z,1.83
2023-04-13T14:23:09.298Z,1.73
2023-04-13T14:25:38.099Z,2.07
2023-04-13T14:28:06.207Z,1.50
2023-04-13T14:30:34.223Z,3.00
2023-04-13T14:33:02.267Z,1.73
2023-04-13T14:35:30.606Z,1.93
2023-04-13T14:37:59.863Z,2.10
2023-04-13T14:40:28.267Z,1.93
2023-04-13T14:42:56.170Z,2.00
2023-04-13T14:45:24.403Z,1.70
2023-04-13T14:47:53.551Z,2.00
2023-04-13T14:50:22.390Z,1.63
2023-04-13T14:52:50.216Z,2.43
2023-04-13T14:55:19.690Z,15.17
2023-04-13T14:57:48.240Z,9.40
2023-04-13T15:00:21.691Z,2.77
2023-04-13T15:02:50.768Z,1.57
2023-04-13T15:05:19.084Z,1.70
2023-04-13T15:07:47.828Z,2.30
2023-04-13T15:10:16.433Z,1.63
2023-04-13T15:12:45.866Z,1.77
2023-04-13T15:15:13.761Z,1.40
2023-04-13T15:17:41.946Z,1.60
2023-04-13T15:20:10.713Z,1.40
2023-04-13T15:22:38.529Z,1.73
2023-04-13T15:25:07.122Z,1.50
2023-04-13T15:27:35.387Z,1.40
2023-04-13T15:30:04.844Z,1.50
2023-04-13T15:32:34.614Z,1.43
2023-04-13T15:35:02.539Z,1.30
2023-04-13T15:37:30.213Z,1.57
2023-04-13T15:39:58.299Z,1.87
2023-04-13T15:42:26.111Z,2.20
2023-04-13T15:44:55.086Z,1.53
2023-04-13T15:47:24.591Z,2.57
2023-04-13T15:49:52.407Z,3.03
2023-04-13T15:52:20.196Z,1.50
2023-04-13T15:54:54.259Z,2.10
2023-04-13T15:57:22.452Z,2.20
2023-04-13T15:59:50.273Z,2.23
2023-04-13T16:02:18.754Z,1.50
2023-04-13T16:04:48.150Z,1.50
2023-04-13T16:07:16.267Z,1.73
2023-04-13T16:09:44.811Z,1.67
2023-04-13T16:12:12.690Z,1.93
2023-04-13T16:14:41.983Z,1.57
2023-04-13T16:17:10.700Z,1.80
2023-04-13T16:19:39.561Z,3.20
2023-04-13T16:22:10.866Z,2.67
2023-04-13T16:24:38.824Z,1.67
2023-04-13T16:27:07.233Z,1.70
2023-04-13T16:29:35.671Z,1.67
2023-04-13T16:32:03.529Z,1.40
2023-04-13T16:34:31.566Z,2.97
2023-04-13T16:36:59.318Z,2.00
2023-04-13T16:39:28.509Z,1.73
2023-04-13T16:41:56.431Z,2.07
2023-04-13T16:44:24.662Z,1.90
2023-04-13T16:46:52.527Z,2.30
2023-04-13T16:49:20.308Z,2.07
2023-04-13T16:51:48.638Z,2.30
2023-04-13T16:54:17.808Z,2.50
2023-04-13T16:56:47.093Z,1.90
2023-04-13T16:59:15.466Z,2.17
2023-04-13T17:01:43.270Z,3.10
2023-04-13T17:04:12.012Z,2.97
2023-04-13T17:06:40.306Z,2.33
2023-04-13T17:09:08.232Z,1.57
2023-04-13T17:11:36.107Z,6.13
2023-04-13T17:14:05.894Z,3.57
2023-04-13T17:16:33.634Z,5.07
2023-04-13T17:19:02.436Z,6.00
2023-04-13T17:21:30.699Z,5.40
2023-04-13T17:24:00.310Z,3.63
2023-04-13T17:26:29.340Z,2.07
2023-04-13T17:28:58.542Z,2.83
2023-04-13T17:31:27.776Z,3.03
2023-04-13T17:33:55.840Z,2.90
2023-04-13T17:36:23.859Z,2.70
2023-04-13T17:38:51.702Z,2.83
2023-04-13T17:41:19.653Z,3.17
2023-04-13T17:43:47.626Z,3.20
2023-04-13T17:46:15.795Z,6.60
2023-04-13T17:48:45.008Z,5.60
2023-04-13T17:51:12.760Z,3.03
2023-04-13T17:53:40.505Z,5.23
2023-04-13T17:56:09.342Z,4.30
2023-04-13T17:58:37.105Z,3.60
2023-04-13T18:01:08.655Z,4.03
2023-04-13T18:03:36.742Z,3.67
2023-04-13T18:06:06.314Z,4.87
2023-04-13T18:08:34.582Z,3.10
2023-04-13T18:11:02.633Z,4.60
2023-04-13T18:13:31.411Z,4.40
2023-04-13T18:15:59.727Z,4.50
2023-04-13T18:18:27.592Z,4.17
2023-04-13T18:20:55.813Z,11.20
2023-04-13T18:23:25.821Z,10.20
2023-04-13T18:25:53.881Z,12.70
2023-04-13T18:28:22.119Z,8.30
2023-04-13T18:30:50.185Z,7.07
2023-04-13T18:33:17.976Z,4.63
2023-04-13T18:35:46.595Z,4.23
2023-04-13T18:38:15.085Z,3.47
2023-04-13T18:40:45.639Z,3.73
2023-04-13T18:43:13.437Z,4.13
2023-04-13T18:45:41.821Z,5.47
2023-04-13T18:48:10.420Z,6.60
2023-04-13T18:50:38.213Z,5.40
2023-04-13T18:53:06.600Z,6.60
2023-04-13T18:55:34.336Z,5.00
2023-04-13T18:58:04.244Z,7.87
2023-04-13T19:00:33.769Z,8.70
2023-04-13T19:03:02.584Z,7.53
2023-04-13T19:05:32.014Z,8.30
2023-04-13T19:08:01.046Z,9.47
2023-04-13T19:10:28.967Z,9.13
2023-04-13T19:12:56.869Z,10.17
2023-04-13T19:15:26.112Z,9.57
2023-04-13T19:17:54.103Z,10.20
2023-04-13T19:20:22.344Z,9.80
2023-04-13T19:22:50.645Z,10.03
2023-04-13T19:25:18.467Z,9.97
2023-04-13T19:27:46.808Z,10.80
2023-04-13T19:30:15.200Z,10.40
2023-04-13T19:32:45.174Z,14.07
2023-04-13T19:35:13.617Z,10.50
2023-04-13T19:37:41.416Z,9.97
2023-04-13T19:40:13.155Z,8.80
2023-04-13T19:42:42.434Z,8.87
2023-04-13T19:45:10.770Z,8.33
2023-04-13T19:47:39.354Z,9.97
2023-04-13T19:50:10.146Z,6.90
2023-04-13T19:52:38.684Z,7.80
2023-04-13T19:55:07.544Z,8.00
2023-04-13T19:57:36.643Z,9.90
2023-04-13T20:00:16.783Z,6.27
2023-04-13T20:02:45.290Z,7.00
2023-04-13T20:05:15.333Z,7.47
2023-04-13T20:07:43.479Z,6.77
2023-04-13T20:10:12.039Z,7.10
2023-04-13T20:12:40.402Z,7.37
2023-04-13T20:15:08.904Z,8.90
2023-04-13T20:17:36.905Z,7.70
2023-04-13T20:20:06.233Z,8.60
2023-04-13T20:22:35.486Z,8.70
2023-04-13T20:25:03.483Z,9.03
2023-04-13T20:27:31.305Z,8.23
2023-04-13T20:29:59.434Z,8.60
2023-04-13T20:32:27.204Z,8.20
2023-04-13T20:34:55.348Z,6.70
2023-04-13T20:37:23.525Z,7.03
2023-04-13T20:39:52.824Z,7.87
2023-04-13T20:42:22.439Z,7.47
2023-04-13T20:44:57.406Z,7.90
2023-04-13T20:47:26.390Z,8.53
2023-04-13T20:49:57.620Z,9.70
2023-04-13T20:52:25.955Z,8.87
2023-04-13T20:54:55.430Z,8.93
2023-04-13T20:57:23.907Z,8.53
2023-04-13T20:59:52.643Z,9.67
2023-04-13T21:02:21.216Z,9.80
2023-04-13T21:04:49.117Z,11.37
2023-04-13T21:07:16.864Z,12.80
2023-04-13T21:09:44.527Z,14.40
2023-04-13T21:12:13.911Z,13.70
2023-04-13T21:14:41.910Z,13.67
2023-04-13T21:17:09.617Z,14.03
2023-04-13T21:19:38.046Z,15.00
2023-04-13T21:22:06.021Z,14.70
2023-04-13T21:24:33.720Z,17.23
2023-04-13T21:27:02.290Z,17.70
2023-04-13T21:29:31.365Z,16.43
2023-04-13T21:32:00.046Z,16.03
2023-04-13T21:34:28.189Z,16.40
2023-04-13T21:36:55.928Z,16.40
2023-04-13T21:39:23.735Z,17.43
2023-04-13T21:41:51.648Z,15.97
2023-04-13T21:44:29.306Z,18.60
2023-04-13T21:46:59.594Z,20.83
2023-04-13T21:49:27.622Z,17.10
2023-04-13T21:51:55.688Z,17.07
2023-04-13T21:54:23.471Z,15.80
2023-04-13T21:56:51.245Z,15.77
2023-04-13T21:59:18.960Z,14.00
2023-04-13T22:01:47.400Z,13.70
2023-04-13T22:04:16.720Z,14.17
2023-04-13T22:06:44.707Z,11.90
2023-04-13T22:09:13.308Z,12.60
2023-04-13T22:11:41.408Z,11.90
2023-04-13T22:14:09.206Z,10.47
2023-04-13T22:16:37.536Z,9.80
2023-04-13T22:19:05.219Z,10.33
2023-04-13T22:21:37.072Z,9.37
2023-04-13T22:24:04.881Z,10.20
2023-04-13T22:26:32.911Z,10.73
2023-04-13T22:29:00.947Z,10.23
2023-04-13T22:31:28.848Z,10.93
2023-04-13T22:33:57.350Z,10.77
2023-04-13T22:36:25.307Z,10.57
2023-04-13T22:38:54.747Z,11.07
2023-04-13T22:41:22.664Z,10.20
2023-04-13T22:43:50.692Z,11.10
2023-04-13T22:46:18.606Z,11.17
2023-04-13T22:48:46.435Z,12.67
2023-04-13T22:51:14.225Z,12.13
2023-04-13T22:53:41.969Z,12.37
2023-04-13T22:56:11.450Z,16.27
2023-04-13T22:58:39.400Z,12.20
2023-04-13T23:01:07.070Z,12.90
2023-04-13T23:03:35.019Z,12.20
2023-04-13T23:06:05.008Z,11.90
2023-04-13T23:08:32.703Z,11.87
2023-04-13T23:11:07.517Z,11.23
2023-04-13T23:13:36.883Z,11.90
2023-04-13T23:16:06.766Z,13.57
2023-04-13T23:18:34.533Z,12.00
2023-04-13T23:21:09.226Z,11.17
2023-04-13T23:23:37.111Z,12.00
2023-04-13T23:26:04.988Z,13.40
2023-04-13T23:28:33.425Z,13.87
2023-04-13T23:31:06.366Z,13.77
2023-04-13T23:33:34.231Z,14.70
2023-04-13T23:36:03.180Z,15.40
2023-04-13T23:38:31.176Z,18.37
2023-04-13T23:40:58.850Z,15.60
2023-04-13T23:43:27.342Z,14.30
2023-04-13T23:45:55.220Z,14.17
2023-04-13T23:48:26.094Z,15.43
2023-04-13T23:50:54.405Z,14.20
2023-04-13T23:53:22.044Z,12.87
2023-04-13T23:55:50.568Z,12.80
2023-04-13T23:58:18.456Z,13.90
